Time;durP1;ratioP1;P1;durP2;ratioP2;P2;SDS_P1;SDS_P2;PMS_P1;PMS_P2;Temp;Humidity;BMP_temperature;BMP_pressure;BME280_temperature;BME280_humidity;BME280_pressure;Samples;Min_cycle;Max_cycle;Signal;HPM_P1;HPM_P2
2021/05/19 00:01:22;;;;;;;;;5.50;2.00;;;;;;;;5053785;28;10982;-79
2021/05/19 00:03:50;;;;;;;;;2.50;2.50;;;;;;;;5050857;28;11038;-79
2021/05/19 00:06:18;;;;;;;;;1.75;1.75;;;;;;;;5060431;28;10923;-77
2021/05/19 00:08:45;;;;;;;;;2.00;1.00;;;;;;;;5059561;28;10769;-78
2021/05/19 00:11:12;;;;;;;;;2.00;2.00;;;;;;;;5057592;28;11030;-77
2021/05/19 00:13:39;;;;;;;;;1.50;1.50;;;;;;;;5037566;28;11042;-77
2021/05/19 00:16:07;;;;;;;;;2.75;2.00;;;;;;;;5060508;28;10939;-77
2021/05/19 00:18:34;;;;;;;;;3.00;3.00;;;;;;;;5051076;28;10992;-77
2021/05/19 00:21:02;;;;;;;;;2.50;1.50;;;;;;;;5056177;28;11194;-79
2021/05/19 00:23:30;;;;;;;;;2.00;2.00;;;;;;;;5053620;28;10878;-77
2021/05/19 00:25:58;;;;;;;;;2.00;2.00;;;;;;;;5061020;28;11054;-78
2021/05/19 00:28:25;;;;;;;;;1.00;0.00;;;;;;;;5063671;28;11177;-79
2021/05/19 00:30:55;;;;;;;;;2.00;2.00;;;;;;;;5034794;28;10940;-77
2021/05/19 00:33:22;;;;;;;;;2.75;2.75;;;;;;;;5070085;28;10944;-80
2021/05/19 00:35:49;;;;;;;;;1.75;1.75;;;;;;;;5055546;28;11118;-78
2021/05/19 00:38:16;;;;;;;;;5.00;5.00;;;;;;;;5032276;28;11081;-77
2021/05/19 00:40:44;;;;;;;;;3.00;3.00;;;;;;;;5056110;28;10998;-78
2021/05/19 00:43:11;;;;;;;;;3.00;3.00;;;;;;;;5056359;28;11113;-78
2021/05/19 00:45:38;;;;;;;;;1.00;1.00;;;;;;;;5041239;28;11039;-77
2021/05/19 00:48:09;;;;;;;;;2.00;2.00;;;;;;;;5047112;28;10847;-78
2021/05/19 00:50:36;;;;;;;;;4.50;4.50;;;;;;;;5037007;28;10950;-77
2021/05/19 00:53:04;;;;;;;;;5.25;3.00;;;;;;;;5051252;28;10926;-78
2021/05/19 00:55:31;;;;;;;;;3.50;3.50;;;;;;;;5046785;28;10884;-78
2021/05/19 00:57:59;;;;;;;;;4.75;3.00;;;;;;;;5039762;28;11315;-78
2021/05/19 01:00:27;;;;;;;;;5.00;5.00;;;;;;;;5063436;28;10852;-77
2021/05/19 01:02:54;;;;;;;;;4.50;4.50;;;;;;;;5059988;28;11585;-80
2021/05/19 01:05:27;;;;;;;;;3.00;3.00;;;;;;;;5062262;28;11011;-80
2021/05/19 01:10:39;;;;;;;;;4.50;2.50;;;;;;;;5055261;28;10953;-80
2021/05/19 01:13:07;;;;;;;;;3.50;2.50;;;;;;;;5045511;28;10902;-78
2021/05/19 01:15:35;;;;;;;;;6.25;3.00;;;;;;;;5059468;28;10786;-78
2021/05/19 01:18:04;;;;;;;;;2.00;2.00;;;;;;;;5032586;28;11758;-77
2021/05/19 01:20:31;;;;;;;;;6.00;4.00;;;;;;;;5053513;28;10761;-80
2021/05/19 01:22:59;;;;;;;;;3.00;2.00;;;;;;;;5059210;28;10838;-78
2021/05/19 01:25:27;;;;;;;;;3.75;3.75;;;;;;;;5046657;28;10809;-78
2021/05/19 01:27:54;;;;;;;;;3.00;3.00;;;;;;;;5059900;28;11458;-78
2021/05/19 01:30:22;;;;;;;;;3.00;3.00;;;;;;;;5057055;28;10679;-78
2021/05/19 01:32:49;;;;;;;;;4.25;4.25;;;;;;;;5059208;28;10885;-78
2021/05/19 01:35:17;;;;;;;;;2.75;2.75;;;;;;;;5057792;28;10810;-78
2021/05/19 01:37:44;;;;;;;;;3.00;3.00;;;;;;;;5064141;28;10836;-78
2021/05/19 01:40:14;;;;;;;;;5.25;4.00;;;;;;;;5062909;28;10695;-79
2021/05/19 01:42:42;;;;;;;;;3.00;3.00;;;;;;;;5042831;28;10784;-77
2021/05/19 01:45:10;;;;;;;;;3.25;3.25;;;;;;;;5049149;28;10837;-77
2021/05/19 01:47:41;;;;;;;;;3.00;3.00;;;;;;;;5059388;28;10641;-82
2021/05/19 01:50:11;;;;;;;;;6.25;5.00;;;;;;;;5060057;28;10493;-78
2021/05/19 01:52:38;;;;;;;;;3.75;3.75;;;;;;;;5061701;28;10629;-80
2021/05/19 01:55:07;;;;;;;;;3.50;3.50;;;;;;;;5055170;28;10631;-78
2021/05/19 01:57:35;;;;;;;;;4.25;4.25;;;;;;;;5061159;28;10719;-77
2021/05/19 02:00:04;;;;;;;;;4.25;4.25;;;;;;;;5055539;28;11737;-77
2021/05/19 02:02:31;;;;;;;;;5.50;5.50;;;;;;;;5040580;28;10604;-77
2021/05/19 02:04:58;;;;;;;;;4.75;4.75;;;;;;;;5062306;28;10543;-78
2021/05/19 02:07:25;;;;;;;;;3.75;3.75;;;;;;;;5027061;28;10582;-79
2021/05/19 02:09:52;;;;;;;;;3.00;3.00;;;;;;;;5058332;28;10460;-77
2021/05/19 02:12:19;;;;;;;;;6.00;3.00;;;;;;;;5036676;28;10248;-78
2021/05/19 02:14:47;;;;;;;;;2.50;2.50;;;;;;;;5063347;28;10351;-77
2021/05/19 02:17:14;;;;;;;;;6.00;5.75;;;;;;;;5041609;28;10471;-78
2021/05/19 02:19:41;;;;;;;;;4.25;4.25;;;;;;;;5060285;28;10614;-77
2021/05/19 02:22:08;;;;;;;;;7.25;7.25;;;;;;;;5036352;28;10700;-77
2021/05/19 02:24:35;;;;;;;;;11.00;5.75;;;;;;;;5054625;28;10636;-77
2021/05/19 02:27:02;;;;;;;;;4.75;4.75;;;;;;;;5054313;28;10507;-77
2021/05/19 02:29:29;;;;;;;;;6.25;4.00;;;;;;;;5033978;28;10512;-79
2021/05/19 02:31:57;;;;;;;;;3.50;3.50;;;;;;;;5050171;28;10332;-77
2021/05/19 02:34:24;;;;;;;;;5.50;5.50;;;;;;;;5048820;28;10422;-77
2021/05/19 02:36:54;;;;;;;;;6.00;6.00;;;;;;;;5064534;28;10486;-77
2021/05/19 02:39:21;;;;;;;;;4.50;4.50;;;;;;;;5054354;28;10408;-78
2021/05/19 02:41:48;;;;;;;;;6.50;6.50;;;;;;;;5054556;28;10499;-77
2021/05/19 02:44:16;;;;;;;;;4.00;4.00;;;;;;;;5060899;28;10225;-77
2021/05/19 02:46:43;;;;;;;;;7.00;5.00;;;;;;;;5061261;28;10382;-78
2021/05/19 02:49:11;;;;;;;;;7.00;5.00;;;;;;;;5052587;28;10276;-80
2021/05/19 02:51:39;;;;;;;;;3.50;3.50;;;;;;;;5039007;28;10198;-79
2021/05/19 02:54:08;;;;;;;;;6.00;6.00;;;;;;;;5059529;28;10185;-78
2021/05/19 02:56:35;;;;;;;;;3.25;3.25;;;;;;;;5059541;28;10334;-77
2021/05/19 02:59:03;;;;;;;;;6.25;6.25;;;;;;;;5056216;28;10202;-80
2021/05/19 03:01:30;;;;;;;;;7.50;5.50;;;;;;;;5037369;28;10105;-77
2021/05/19 03:03:57;;;;;;;;;6.25;5.00;;;;;;;;5062780;28;10262;-77
2021/05/19 03:06:25;;;;;;;;;7.00;7.00;;;;;;;;5056409;28;10355;-77
2021/05/19 03:08:52;;;;;;;;;6.25;3.75;;;;;;;;5060770;28;10398;-77
2021/05/19 03:11:19;;;;;;;;;4.00;4.00;;;;;;;;5052108;28;10200;-76
2021/05/19 03:13:47;;;;;;;;;6.75;6.75;;;;;;;;5067238;28;10441;-78
2021/05/19 03:16:14;;;;;;;;;6.25;6.25;;;;;;;;5055475;28;10412;-77
2021/05/19 03:18:41;;;;;;;;;8.25;8.25;;;;;;;;5066553;28;10536;-75
2021/05/19 03:21:08;;;;;;;;;6.75;6.00;;;;;;;;5050410;28;10724;-77
2021/05/19 03:23:36;;;;;;;;;8.50;6.00;;;;;;;;5060447;28;10690;-77
2021/05/19 03:26:03;;;;;;;;;6.25;6.25;;;;;;;;5027037;28;10677;-76
2021/05/19 03:28:30;;;;;;;;;6.25;5.00;;;;;;;;5061461;28;10720;-75
2021/05/19 03:30:57;;;;;;;;;8.00;8.00;;;;;;;;5052042;28;10749;-75
2021/05/19 03:33:24;;;;;;;;;8.50;8.50;;;;;;;;5056843;28;10867;-76
2021/05/19 03:35:51;;;;;;;;;7.75;7.75;;;;;;;;5051099;28;11556;-75
2021/05/19 03:38:19;;;;;;;;;6.00;6.00;;;;;;;;5059685;28;11537;-76
2021/05/19 03:40:47;;;;;;;;;5.25;4.25;;;;;;;;5033220;28;10690;-75
2021/05/19 03:43:15;;;;;;;;;2.00;2.00;;;;;;;;5056469;28;10695;-78
2021/05/19 03:45:42;;;;;;;;;3.75;2.00;;;;;;;;5058655;28;10558;-77
2021/05/19 03:48:10;;;;;;;;;1.00;1.00;;;;;;;;5044489;28;10663;-75
2021/05/19 03:50:39;;;;;;;;;2.75;2.75;;;;;;;;5053528;28;10466;-76
2021/05/19 03:53:07;;;;;;;;;2.00;2.00;;;;;;;;5050516;28;10559;-75
2021/05/19 03:55:35;;;;;;;;;2.50;1.00;;;;;;;;5056817;28;10626;-76
2021/05/19 03:58:04;;;;;;;;;1.00;1.00;;;;;;;;5058142;28;10558;-75
2021/05/19 04:00:35;;;;;;;;;2.00;2.00;;;;;;;;5033411;28;10246;-75
2021/05/19 04:03:02;;;;;;;;;1.75;1.50;;;;;;;;5042812;28;10522;-76
2021/05/19 04:05:33;;;;;;;;;1.00;1.00;;;;;;;;5061764;28;10475;-75
2021/05/19 04:08:00;;;;;;;;;0.50;0.50;;;;;;;;5057107;28;10476;-76
2021/05/19 04:10:27;;;;;;;;;1.00;1.00;;;;;;;;5058021;28;10384;-75
2021/05/19 04:12:54;;;;;;;;;2.00;2.00;;;;;;;;5048849;28;10469;-77
2021/05/19 04:15:24;;;;;;;;;1.00;1.00;;;;;;;;5058122;28;10326;-76
2021/05/19 04:17:51;;;;;;;;;1.00;1.00;;;;;;;;5063131;28;10240;-76
2021/05/19 04:20:19;;;;;;;;;1.00;1.00;;;;;;;;5059958;28;10178;-76
2021/05/19 04:22:46;;;;;;;;;2.00;2.00;;;;;;;;5066139;28;10164;-76
2021/05/19 04:25:15;;;;;;;;;1.00;1.00;;;;;;;;5043978;28;10374;-76
2021/05/19 04:27:42;;;;;;;;;1.50;1.50;;;;;;;;5061035;28;10048;-75
2021/05/19 04:30:10;;;;;;;;;1.00;1.00;;;;;;;;5047224;28;10193;-78
2021/05/19 04:32:38;;;;;;;;;1.75;1.00;;;;;;;;5064143;28;10941;-80
2021/05/19 04:35:07;;;;;;;;;1.00;1.00;;;;;;;;5059863;28;10027;-72
2021/05/19 04:37:35;;;;;;;;;1.00;1.00;;;;;;;;5061325;28;10038;-72
2021/05/19 04:40:02;;;;;;;;;3.00;1.75;;;;;;;;5065616;28;9954;-71
2021/05/19 04:42:29;;;;;;;;;1.00;1.00;;;;;;;;5066946;28;10025;-72
2021/05/19 04:44:56;;;;;;;;;1.75;1.75;;;;;;;;5064775;28;10715;-72
2021/05/19 04:47:23;;;;;;;;;1.00;1.00;;;;;;;;5059668;28;10100;-75
2021/05/19 04:49:51;;;;;;;;;2.25;2.00;;;;;;;;5064480;28;9949;-71
2021/05/19 04:52:18;;;;;;;;;3.00;3.00;;;;;;;;5065803;28;9883;-72
2021/05/19 04:54:45;;;;;;;;;2.00;2.00;;;;;;;;5063759;28;9998;-71
2021/05/19 04:57:11;;;;;;;;;2.00;2.00;;;;;;;;5047960;28;9979;-73
2021/05/19 04:59:38;;;;;;;;;1.25;1.25;;;;;;;;5045552;28;9880;-74
2021/05/19 05:02:05;;;;;;;;;1.00;1.00;;;;;;;;5041637;28;9790;-72
2021/05/19 05:04:32;;;;;;;;;1.75;1.75;;;;;;;;5063117;28;9767;-73
2021/05/19 05:07:01;;;;;;;;;1.00;1.00;;;;;;;;5064027;28;10562;-74
2021/05/19 05:09:28;;;;;;;;;1.00;1.00;;;;;;;;5064001;28;9805;-73
2021/05/19 05:11:55;;;;;;;;;1.00;1.00;;;;;;;;5054001;28;9803;-72
2021/05/19 05:14:22;;;;;;;;;1.00;1.00;;;;;;;;5064327;28;9769;-73
2021/05/19 05:16:49;;;;;;;;;0.00;0.00;;;;;;;;5064938;28;9702;-73
2021/05/19 05:19:16;;;;;;;;;1.00;1.00;;;;;;;;5065044;28;9568;-73
2021/05/19 05:21:43;;;;;;;;;1.00;1.00;;;;;;;;5047988;28;9634;-73
2021/05/19 05:24:12;;;;;;;;;1.00;1.00;;;;;;;;5063164;28;9715;-73
2021/05/19 05:26:39;;;;;;;;;2.75;1.00;;;;;;;;5062876;28;10447;-73
2021/05/19 05:29:06;;;;;;;;;1.00;1.00;;;;;;;;5055200;28;9582;-72
2021/05/19 05:31:33;;;;;;;;;1.00;1.00;;;;;;;;5055790;28;9717;-72
2021/05/19 05:33:59;;;;;;;;;0.00;0.00;;;;;;;;5051990;28;9560;-71
2021/05/19 05:36:26;;;;;;;;;0.00;0.00;;;;;;;;5059947;28;9474;-75
2021/05/19 05:38:53;;;;;;;;;2.00;0.75;;;;;;;;5053070;28;9551;-73
2021/05/19 05:41:21;;;;;;;;;1.00;1.00;;;;;;;;5062010;28;9624;-70
2021/05/19 05:43:49;;;;;;;;;1.00;1.00;;;;;;;;5065411;28;10371;-71
2021/05/19 05:46:15;;;;;;;;;1.00;1.00;;;;;;;;5046028;28;9514;-72
2021/05/19 05:48:42;;;;;;;;;2.50;1.00;;;;;;;;5064725;28;9445;-71
2021/05/19 05:51:09;;;;;;;;;1.00;1.00;;;;;;;;5064692;28;9632;-71
2021/05/19 05:53:36;;;;;;;;;1.00;1.00;;;;;;;;5063813;28;9565;-71
2021/05/19 05:56:03;;;;;;;;;3.00;1.00;;;;;;;;5065745;28;9603;-71
2021/05/19 05:58:31;;;;;;;;;1.00;1.00;;;;;;;;5062185;28;9641;-71
2021/05/19 06:00:59;;;;;;;;;0.00;0.00;;;;;;;;5046179;28;9399;-71
2021/05/19 06:03:25;;;;;;;;;1.00;1.00;;;;;;;;5045722;28;9416;-71
2021/05/19 06:05:53;;;;;;;;;0.00;0.00;;;;;;;;5064657;28;9531;-73
2021/05/19 06:08:20;;;;;;;;;1.00;1.00;;;;;;;;5062819;28;9573;-71
2021/05/19 06:10:47;;;;;;;;;1.00;1.00;;;;;;;;5028700;28;9580;-72
2021/05/19 06:13:14;;;;;;;;;1.00;1.00;;;;;;;;5058522;28;9470;-70
2021/05/19 06:15:42;;;;;;;;;1.00;1.00;;;;;;;;5059044;28;9732;-70
2021/05/19 06:18:08;;;;;;;;;1.00;1.00;;;;;;;;5063204;28;9624;-71
2021/05/19 06:20:35;;;;;;;;;2.75;2.75;;;;;;;;5059367;28;9580;-71
2021/05/19 06:23:02;;;;;;;;;3.00;3.00;;;;;;;;5062669;28;10579;-72
2021/05/19 06:25:30;;;;;;;;;2.00;2.00;;;;;;;;5058328;28;10792;-72
2021/05/19 06:27:57;;;;;;;;;5.50;2.00;;;;;;;;5064009;28;9773;-73
2021/05/19 06:30:24;;;;;;;;;3.00;3.00;;;;;;;;5061740;28;9696;-70
2021/05/19 06:32:52;;;;;;;;;1.00;1.00;;;;;;;;5063003;28;9707;-72
2021/05/19 06:35:19;;;;;;;;;8.75;7.00;;;;;;;;5062965;28;9630;-71
2021/05/19 06:37:46;;;;;;;;;3.50;3.50;;;;;;;;5056749;28;9994;-71
2021/05/19 06:40:14;;;;;;;;;4.00;4.00;;;;;;;;5063880;28;9729;-71
2021/05/19 06:42:41;;;;;;;;;2.25;2.25;;;;;;;;5061726;28;9783;-71
2021/05/19 06:45:09;;;;;;;;;2.00;2.00;;;;;;;;5063989;28;9577;-71
2021/05/19 06:47:36;;;;;;;;;1.00;1.00;;;;;;;;5063427;28;9635;-74
2021/05/19 06:50:06;;;;;;;;;1.00;1.00;;;;;;;;5049469;28;9893;-74
2021/05/19 06:52:33;;;;;;;;;1.00;1.00;;;;;;;;5034110;28;9499;-72
2021/05/19 06:55:02;;;;;;;;;1.00;1.00;;;;;;;;5057719;28;9479;-75
2021/05/19 06:57:28;;;;;;;;;1.00;1.00;;;;;;;;5056049;28;9478;-74
2021/05/19 06:59:55;;;;;;;;;1.00;1.00;;;;;;;;5060938;28;9553;-73
2021/05/19 07:02:22;;;;;;;;;1.67;1.00;;;;;;;;5055541;28;9564;-75
2021/05/19 07:04:49;;;;;;;;;1.00;1.00;;;;;;;;5059405;28;9357;-73
2021/05/19 07:07:16;;;;;;;;;1.00;1.00;;;;;;;;5052068;28;10639;-75
2021/05/19 07:09:43;;;;;;;;;1.00;1.00;;;;;;;;5052388;28;9511;-75
2021/05/19 07:12:10;;;;;;;;;1.25;1.25;;;;;;;;5047087;28;9491;-75
2021/05/19 07:14:45;;;;;;;;;1.50;1.50;;;;;;;;5048008;28;9392;-74
2021/05/19 07:17:12;;;;;;;;;4.00;1.00;;;;;;;;5050162;28;9397;-73
2021/05/19 07:19:39;;;;;;;;;4.75;2.75;;;;;;;;5057399;28;9553;-74
2021/05/19 07:22:06;;;;;;;;;2.00;2.00;;;;;;;;5053670;28;11203;-75
2021/05/19 07:24:34;;;;;;;;;4.00;3.00;;;;;;;;5041150;28;9618;-73
2021/05/19 07:27:01;;;;;;;;;3.33;3.33;;;;;;;;5057603;28;9483;-73
2021/05/19 07:29:28;;;;;;;;;4.00;4.00;;;;;;;;5042981;28;9452;-74
2021/05/19 07:31:56;;;;;;;;;4.00;3.00;;;;;;;;5059380;28;9263;-75
2021/05/19 07:34:23;;;;;;;;;4.00;4.00;;;;;;;;5056708;28;9370;-71
2021/05/19 07:36:50;;;;;;;;;2.00;2.00;;;;;;;;5060407;28;9272;-73
2021/05/19 07:39:18;;;;;;;;;3.33;3.00;;;;;;;;5042887;28;9268;-72
2021/05/19 07:41:45;;;;;;;;;3.00;3.00;;;;;;;;5059730;28;9155;-74
2021/05/19 07:44:12;;;;;;;;;2.33;2.33;;;;;;;;5023563;28;9255;-72
2021/05/19 07:46:39;;;;;;;;;3.00;2.00;;;;;;;;5058306;28;10013;-72
2021/05/19 07:49:07;;;;;;;;;3.00;3.00;;;;;;;;5055053;28;10013;-73
2021/05/19 07:51:35;;;;;;;;;2.00;2.00;;;;;;;;5056938;28;10214;-74
2021/05/19 07:54:03;;;;;;;;;2.00;2.00;;;;;;;;5060156;28;9271;-74
2021/05/19 07:56:35;;;;;;;;;2.33;2.33;;;;;;;;5058900;28;10031;-73
2021/05/19 07:59:07;;;;;;;;;2.00;2.00;;;;;;;;5061174;28;9339;-73
2021/05/19 08:04:15;;;;;;;;;1.33;1.33;;;;;;;;5037396;28;9205;-74
2021/05/19 08:06:41;;;;;;;;;4.00;2.67;;;;;;;;5058963;28;10254;-73
2021/05/19 08:09:08;;;;;;;;;2.67;2.00;;;;;;;;5055903;28;9828;-74
2021/05/19 08:11:37;;;;;;;;;3.00;3.00;;;;;;;;5056161;28;9169;-72
2021/05/19 08:14:05;;;;;;;;;2.00;2.00;;;;;;;;5050705;28;9298;-72
2021/05/19 08:16:31;;;;;;;;;3.00;3.00;;;;;;;;5051751;28;9196;-72
2021/05/19 08:18:58;;;;;;;;;3.67;3.67;;;;;;;;5053590;28;9116;-71
2021/05/19 08:21:25;;;;;;;;;2.67;1.00;;;;;;;;5060534;28;9256;-73
2021/05/19 08:23:51;;;;;;;;;2.00;2.00;;;;;;;;5057482;28;9023;-76
2021/05/19 08:26:18;;;;;;;;;2.00;2.00;;;;;;;;5056231;28;9035;-71
2021/05/19 08:28:46;;;;;;;;;3.00;3.00;;;;;;;;5056586;28;8983;-72
2021/05/19 08:31:18;;;;;;;;;1.33;1.00;;;;;;;;5053165;28;8914;-72
2021/05/19 08:33:45;;;;;;;;;2.00;2.00;;;;;;;;5057005;28;8981;-73
2021/05/19 08:36:13;;;;;;;;;1.00;1.00;;;;;;;;5060111;28;9230;-76
2021/05/19 08:38:43;;;;;;;;;1.33;1.33;;;;;;;;5060656;28;9101;-73
2021/05/19 08:41:10;;;;;;;;;1.67;1.67;;;;;;;;5053524;28;9032;-72
2021/05/19 08:43:37;;;;;;;;;2.00;0.00;;;;;;;;5054537;28;9326;-73
2021/05/19 08:46:05;;;;;;;;;1.00;1.00;;;;;;;;5061173;28;9259;-73
2021/05/19 08:48:34;;;;;;;;;1.00;1.00;;;;;;;;5059392;28;9264;-73
2021/05/19 08:51:01;;;;;;;;;1.00;1.00;;;;;;;;5058735;28;9352;-72
2021/05/19 08:53:28;;;;;;;;;2.00;2.00;;;;;;;;5060186;28;9333;-73
2021/05/19 08:55:56;;;;;;;;;3.33;2.00;;;;;;;;5061843;28;9472;-73
2021/05/19 08:58:23;;;;;;;;;3.00;1.00;;;;;;;;5060786;28;9251;-73
2021/05/19 09:00:50;;;;;;;;;1.00;1.00;;;;;;;;5060903;28;9093;-73
2021/05/19 09:03:18;;;;;;;;;1.00;1.00;;;;;;;;5061459;28;9028;-73
2021/05/19 09:05:48;;;;;;;;;0.50;0.50;;;;;;;;5060933;28;9652;-73
2021/05/19 09:08:16;;;;;;;;;1.00;1.00;;;;;;;;5062183;28;8995;-73
2021/05/19 09:10:44;;;;;;;;;1.00;1.00;;;;;;;;5060906;28;9029;-73
2021/05/19 09:13:31;;;;;;;;;0.75;0.75;;;;;;;;5062333;28;8864;-72
2021/05/19 09:15:58;;;;;;;;;0.00;0.00;;;;;;;;5079459;28;9796;-72
2021/05/19 09:18:25;;;;;;;;;0.00;0.00;;;;;;;;5064657;28;8970;-72
2021/05/19 09:20:53;;;;;;;;;1.75;1.00;;;;;;;;5065423;28;8856;-73
2021/05/19 09:23:22;;;;;;;;;0.00;0.00;;;;;;;;5064721;28;8892;-73
2021/05/19 09:26:04;;;;;;;;;0.00;0.00;;;;;;;;5065273;28;8888;-72
2021/05/19 09:28:31;;;;;;;;;0.00;0.00;;;;;;;;5063303;28;9627;-73
2021/05/19 09:30:58;;;;;;;;;0.00;0.00;;;;;;;;5063899;28;8808;-74
2021/05/19 09:33:27;;;;;;;;;0.00;0.00;;;;;;;;5047393;28;8890;-72
2021/05/19 09:36:12;;;;;;;;;1.00;1.00;;;;;;;;5061578;28;8915;-74
2021/05/19 09:38:40;;;;;;;;;0.00;0.00;;;;;;;;5059141;28;9611;-74
2021/05/19 09:41:21;;;;;;;;;0.00;0.00;;;;;;;;5063668;28;8938;-73
2021/05/19 09:43:53;;;;;;;;;0.00;0.00;;;;;;;;5062858;28;8864;-74
2021/05/19 09:46:23;;;;;;;;;0.00;0.00;;;;;;;;5066727;28;8953;-74
2021/05/19 09:49:12;;;;;;;;;0.00;0.00;;;;;;;;5064897;28;8879;-74
2021/05/19 09:51:41;;;;;;;;;0.00;0.00;;;;;;;;5060841;28;8868;-74
2021/05/19 09:54:27;;;;;;;;;0.25;0.25;;;;;;;;5062109;28;8876;-73
2021/05/19 09:56:55;;;;;;;;;1.00;1.00;;;;;;;;5044225;28;8864;-74
2021/05/19 09:59:23;;;;;;;;;0.50;0.50;;;;;;;;5063068;28;8832;-74
2021/05/19 10:01:50;;;;;;;;;1.00;1.00;;;;;;;;5063295;28;8827;-73
2021/05/19 10:04:19;;;;;;;;;0.00;0.00;;;;;;;;5046387;28;8816;-73
2021/05/19 10:06:48;;;;;;;;;1.25;1.00;;;;;;;;5044931;28;8949;-73
2021/05/19 10:09:15;;;;;;;;;0.50;0.50;;;;;;;;5058263;28;8856;-73
2021/05/19 10:11:43;;;;;;;;;0.00;0.00;;;;;;;;5062302;28;9367;-73
2021/05/19 10:14:12;;;;;;;;;1.00;1.00;;;;;;;;5064122;28;9549;-73
2021/05/19 10:16:42;;;;;;;;;0.75;0.75;;;;;;;;5045738;28;8938;-73
2021/05/19 10:19:11;;;;;;;;;1.25;1.25;;;;;;;;5063396;28;8868;-74
2021/05/19 10:21:39;;;;;;;;;1.00;1.00;;;;;;;;5064221;28;8945;-74
2021/05/19 10:24:10;;;;;;;;;0.75;0.75;;;;;;;;5064137;28;8983;-73
2021/05/19 10:27:01;;;;;;;;;1.00;1.00;;;;;;;;5066619;28;8891;-74
2021/05/19 10:29:53;;;;;;;;;1.00;0.67;;;;;;;;5061823;28;8975;-74
2021/05/19 10:32:34;;;;;;;;;1.00;1.00;;;;;;;;5059079;28;8925;-73
2021/05/19 10:35:03;;;;;;;;;2.00;0.00;;;;;;;;5064336;28;9037;-73
2021/05/19 10:37:46;;;;;;;;;0.00;0.00;;;;;;;;5062340;28;8999;-74
2021/05/19 10:40:31;;;;;;;;;1.00;1.00;;;;;;;;5063967;28;8872;-73
2021/05/19 10:43:04;;;;;;;;;0.00;0.00;;;;;;;;5063741;28;8963;-75
2021/05/19 10:45:34;;;;;;;;;1.00;1.00;;;;;;;;5061376;28;10070;-72
2021/05/19 10:48:26;;;;;;;;;2.00;1.00;;;;;;;;5061706;28;9535;-73
2021/05/19 10:50:59;;;;;;;;;0.75;0.75;;;;;;;;5053225;28;8898;-72
2021/05/19 10:59:14;;;;;;;;;1.00;1.00;;;;;;;;5053215;28;8836;-71
2021/05/19 11:01:57;;;;;;;;;1.00;1.00;;;;;;;;5060180;28;8830;-72
2021/05/19 11:04:25;;;;;;;;;1.25;1.25;;;;;;;;5061946;28;10103;-72
2021/05/19 11:07:09;;;;;;;;;2.00;1.00;;;;;;;;5062147;28;8965;-71
2021/05/19 11:09:43;;;;;;;;;1.50;1.50;;;;;;;;5059784;28;8875;-71
2021/05/19 11:12:45;;;;;;;;;0.00;0.00;;;;;;;;5060099;28;8866;-72
2021/05/19 11:18:56;;;;;;;;;1.00;1.00;;;;;;;;5065094;28;8878;-72
2021/05/19 11:21:23;;;;;;;;;0.00;0.00;;;;;;;;5054147;28;8884;-72
2021/05/19 11:24:08;;;;;;;;;0.00;0.00;;;;;;;;5063242;28;8862;-72
2021/05/19 11:26:37;;;;;;;;;0.00;0.00;;;;;;;;5052676;28;8936;-71
2021/05/19 11:29:06;;;;;;;;;2.00;0.00;;;;;;;;5053153;28;8976;-72
2021/05/19 11:31:37;;;;;;;;;0.00;0.00;;;;;;;;5070317;28;8850;-72
2021/05/19 11:34:05;;;;;;;;;0.00;0.00;;;;;;;;5068746;28;8858;-72
2021/05/19 11:36:34;;;;;;;;;0.25;0.25;;;;;;;;5066300;28;8888;-72
2021/05/19 11:39:05;;;;;;;;;0.00;0.00;;;;;;;;5057881;28;8890;-71
2021/05/19 11:41:32;;;;;;;;;0.00;0.00;;;;;;;;5060187;28;8876;-73
2021/05/19 11:43:59;;;;;;;;;0.00;0.00;;;;;;;;5063466;28;8844;-72
2021/05/19 11:46:27;;;;;;;;;0.25;0.25;;;;;;;;5066592;28;8866;-74
2021/05/19 11:49:10;;;;;;;;;0.00;0.00;;;;;;;;5078288;28;9635;-73
2021/05/19 11:51:43;;;;;;;;;0.00;0.00;;;;;;;;5060227;28;8868;-73
2021/05/19 11:54:10;;;;;;;;;0.00;0.00;;;;;;;;5063022;28;8930;-72
2021/05/19 11:56:45;;;;;;;;;0.00;0.00;;;;;;;;5063893;28;8907;-73
2021/05/19 11:59:18;;;;;;;;;0.00;0.00;;;;;;;;5045825;28;8868;-72
2021/05/19 12:01:56;;;;;;;;;0.00;0.00;;;;;;;;5044688;28;8798;-73
2021/05/19 12:04:24;;;;;;;;;0.00;0.00;;;;;;;;5055692;28;8896;-72
2021/05/19 12:06:51;;;;;;;;;0.33;0.33;;;;;;;;5061166;28;8958;-72
2021/05/19 12:09:18;;;;;;;;;0.00;0.00;;;;;;;;5060110;28;9346;-73
2021/05/19 12:11:46;;;;;;;;;0.00;0.00;;;;;;;;5058362;28;9255;-73
2021/05/19 12:14:13;;;;;;;;;0.00;0.00;;;;;;;;5058505;28;9602;-71
2021/05/19 12:16:41;;;;;;;;;0.00;0.00;;;;;;;;5054568;28;9519;-72
2021/05/19 12:19:11;;;;;;;;;0.00;0.00;;;;;;;;5055896;28;9575;-72
2021/05/19 12:21:40;;;;;;;;;0.00;0.00;;;;;;;;5064867;28;9564;-71
2021/05/19 12:24:09;;;;;;;;;0.00;0.00;;;;;;;;5058507;28;9646;-74
2021/05/19 12:26:37;;;;;;;;;0.00;0.00;;;;;;;;5055373;28;9614;-71
2021/05/19 12:29:05;;;;;;;;;0.00;0.00;;;;;;;;5058739;28;9616;-74
2021/05/19 12:31:33;;;;;;;;;0.00;0.00;;;;;;;;5058839;28;9805;-75
2021/05/19 12:34:00;;;;;;;;;0.00;0.00;;;;;;;;5055729;28;9630;-72
2021/05/19 12:36:30;;;;;;;;;0.00;0.00;;;;;;;;5055841;28;9569;-73
2021/05/19 12:39:02;;;;;;;;;0.00;0.00;;;;;;;;5060148;28;9545;-73
2021/05/19 12:41:41;;;;;;;;;0.00;0.00;;;;;;;;5062036;28;9475;-72
2021/05/19 12:44:09;;;;;;;;;0.00;0.00;;;;;;;;5042995;28;9487;-72
2021/05/19 12:46:36;;;;;;;;;0.00;0.00;;;;;;;;5051036;28;9414;-73
2021/05/19 12:49:09;;;;;;;;;0.67;0.00;;;;;;;;5060322;28;9456;-73
2021/05/19 12:51:52;;;;;;;;;0.00;0.00;;;;;;;;5064174;28;9542;-73
2021/05/19 12:54:22;;;;;;;;;0.00;0.00;;;;;;;;5065663;28;9418;-73
2021/05/19 12:57:00;;;;;;;;;0.00;0.00;;;;;;;;5065044;28;9124;-72
2021/05/19 12:59:27;;;;;;;;;0.00;0.00;;;;;;;;5081358;28;9128;-72
2021/05/19 13:01:54;;;;;;;;;0.25;0.25;;;;;;;;5058082;28;9501;-73
2021/05/19 13:04:23;;;;;;;;;0.25;0.00;;;;;;;;5059100;28;8900;-73
2021/05/19 13:06:54;;;;;;;;;0.00;0.00;;;;;;;;5066573;28;8856;-72
2021/05/19 13:09:25;;;;;;;;;0.00;0.00;;;;;;;;5064750;28;8872;-72
2021/05/19 13:12:03;;;;;;;;;0.50;0.50;;;;;;;;5065579;28;8856;-72
2021/05/19 13:14:31;;;;;;;;;0.25;0.00;;;;;;;;5064120;28;8864;-72
2021/05/19 13:17:01;;;;;;;;;0.00;0.00;;;;;;;;5065725;28;8923;-74
2021/05/19 13:19:28;;;;;;;;;0.00;0.00;;;;;;;;5063850;28;8880;-73
2021/05/19 13:21:56;;;;;;;;;0.00;0.00;;;;;;;;5065158;28;8937;-72
2021/05/19 13:24:25;;;;;;;;;0.00;0.00;;;;;;;;5065568;28;8864;-71
2021/05/19 13:26:57;;;;;;;;;0.00;0.00;;;;;;;;5063728;28;9682;-72
2021/05/19 13:29:24;;;;;;;;;0.00;0.00;;;;;;;;5060256;28;8943;-73
2021/05/19 13:32:08;;;;;;;;;0.00;0.00;;;;;;;;5055820;28;8880;-73
2021/05/19 13:34:39;;;;;;;;;0.00;0.00;;;;;;;;5064202;28;8893;-72
2021/05/19 13:37:06;;;;;;;;;0.00;0.00;;;;;;;;5057235;28;8836;-72
2021/05/19 13:39:33;;;;;;;;;0.00;0.00;;;;;;;;5063052;28;9039;-73
2021/05/19 13:42:02;;;;;;;;;0.00;0.00;;;;;;;;5061663;28;8879;-73
2021/05/19 13:44:29;;;;;;;;;0.00;0.00;;;;;;;;5063184;28;8875;-73
2021/05/19 13:47:01;;;;;;;;;0.00;0.00;;;;;;;;5046324;28;8856;-73
2021/05/19 13:49:31;;;;;;;;;0.00;0.00;;;;;;;;5062424;28;8857;-75
2021/05/19 13:52:00;;;;;;;;;0.00;0.00;;;;;;;;5056355;28;8866;-71
2021/05/19 13:54:30;;;;;;;;;0.00;0.00;;;;;;;;5050867;28;8938;-73
2021/05/19 13:56:57;;;;;;;;;0.00;0.00;;;;;;;;5061655;28;8876;-71
2021/05/19 13:59:24;;;;;;;;;0.00;0.00;;;;;;;;5061581;28;8860;-71
2021/05/19 14:01:51;;;;;;;;;0.00;0.00;;;;;;;;5058875;28;8933;-72
2021/05/19 14:04:19;;;;;;;;;0.00;0.00;;;;;;;;5063825;28;8906;-72
2021/05/19 14:06:46;;;;;;;;;0.00;0.00;;;;;;;;5061476;28;8844;-71
2021/05/19 14:09:13;;;;;;;;;3.00;0.00;;;;;;;;5063049;28;8860;-71
2021/05/19 14:11:48;;;;;;;;;0.00;0.00;;;;;;;;5064539;28;8929;-73
2021/05/19 14:14:28;;;;;;;;;0.00;0.00;;;;;;;;5063206;28;8879;-72
2021/05/19 14:17:04;;;;;;;;;0.00;0.00;;;;;;;;5052628;28;8869;-74
2021/05/19 14:27:45;;;;;;;;;0.00;0.00;;;;;;;;5060954;28;8844;-73
2021/05/19 14:30:14;;;;;;;;;0.00;0.00;;;;;;;;5059766;28;8898;-72
2021/05/19 14:32:42;;;;;;;;;0.00;0.00;;;;;;;;5056949;28;8890;-73
2021/05/19 14:35:18;;;;;;;;;0.25;0.25;;;;;;;;5065237;28;10112;-74
2021/05/19 14:38:25;;;;;;;;;0.00;0.00;;;;;;;;5063230;28;8879;-75
2021/05/19 15:00:11;;;;;;;;;2.00;0.25;;;;;;;;5059888;28;8962;-72
2021/05/19 15:02:41;;;;;;;;;0.50;0.50;;;;;;;;5061016;28;8907;-72
2021/05/19 15:05:09;;;;;;;;;0.00;0.00;;;;;;;;5043497;28;9928;-74
2021/05/19 15:07:36;;;;;;;;;1.00;1.00;;;;;;;;5058486;28;8872;-72
2021/05/19 15:10:04;;;;;;;;;1.00;1.00;;;;;;;;5061757;28;8884;-72
2021/05/19 15:12:31;;;;;;;;;2.67;2.67;;;;;;;;5032419;28;8973;-74
2021/05/19 15:14:57;;;;;;;;;2.00;2.00;;;;;;;;5037319;28;9092;-74
2021/05/19 15:17:25;;;;;;;;;2.67;2.67;;;;;;;;5061899;28;8961;-74
2021/05/19 15:19:52;;;;;;;;;0.00;0.00;;;;;;;;5054621;28;8996;-74
2021/05/19 15:22:19;;;;;;;;;1.67;1.67;;;;;;;;5057443;28;9082;-73
2021/05/19 15:24:46;;;;;;;;;2.00;2.00;;;;;;;;5060685;28;9126;-74
2021/05/19 15:27:12;;;;;;;;;3.00;3.00;;;;;;;;5041541;28;9185;-74
2021/05/19 15:29:40;;;;;;;;;2.67;2.67;;;;;;;;5060032;28;9214;-74
2021/05/19 15:32:08;;;;;;;;;2.00;2.00;;;;;;;;5059167;28;9166;-74
2021/05/19 15:34:37;;;;;;;;;3.00;3.00;;;;;;;;5042916;28;9116;-74
2021/05/19 15:37:04;;;;;;;;;3.33;3.33;;;;;;;;5042180;28;9420;-74
2021/05/19 15:39:31;;;;;;;;;5.00;5.00;;;;;;;;5060723;28;10458;-74
2021/05/19 15:41:58;;;;;;;;;7.00;7.00;;;;;;;;5057678;28;9411;-74
2021/05/19 15:44:25;;;;;;;;;7.00;7.00;;;;;;;;5042973;28;9494;-74